createdAt,value
2019-01-31T00:02:45.312Z,18.43
2019-01-31T00:05:35.552Z,18.00
2019-01-31T00:08:28.928Z,17.37
2019-01-31T00:11:05.347Z,16.60
2019-01-31T00:14:08.888Z,15.90
2019-01-31T00:17:00.261Z,16.47
2019-01-31T00:19:36.535Z,15.70
2019-01-31T00:22:14.519Z,15.23
2019-01-31T00:24:46.952Z,15.83
2019-01-31T00:27:28.107Z,15.30
2019-01-31T00:30:00.641Z,15.23
2019-01-31T00:32:49.926Z,14.47
2019-01-31T00:35:22.429Z,14.10
2019-01-31T00:38:09.771Z,14.93
2019-01-31T00:40:46.095Z,13.40
2019-01-31T00:43:34.594Z,14.80
2019-01-31T00:46:23.414Z,13.30
2019-01-31T00:49:16.815Z,13.53
2019-01-31T00:52:05.385Z,13.87
2019-01-31T00:54:40.756Z,13.27
2019-01-31T00:57:26.093Z,12.73
2019-01-31T01:00:04.061Z,13.53
2019-01-31T01:02:36.561Z,12.47
2019-01-31T01:05:37.845Z,12.80
2019-01-31T01:08:24.318Z,11.87
2019-01-31T01:11:08.775Z,11.97
2019-01-31T01:13:58.745Z,11.60
2019-01-31T01:16:37.673Z,12.47
2019-01-31T01:19:19.738Z,10.83
2019-01-31T01:22:07.581Z,10.87
2019-01-31T01:24:44.028Z,9.50
2019-01-31T01:27:23.006Z,10.13
2019-01-31T01:30:09.444Z,10.73
2019-01-31T01:32:41.924Z,10.27
2019-01-31T01:35:33.342Z,10.07
2019-01-31T01:38:15.687Z,11.17
2019-01-31T01:41:09.459Z,9.80
2019-01-31T01:43:53.489Z,9.73
2019-01-31T01:46:43.658Z,9.80
2019-01-31T01:49:28.896Z,9.93
2019-01-31T01:52:32.887Z,10.00
2019-01-31T01:55:05.294Z,9.60
2019-01-31T01:57:49.576Z,9.47
2019-01-31T02:00:39.710Z,10.30
2019-01-31T02:03:16.152Z,9.10
2019-01-31T02:05:55.523Z,9.33
2019-01-31T02:08:48.734Z,8.37
2019-01-31T02:11:32.975Z,9.23
2019-01-31T02:14:30.363Z,8.60
2019-01-31T02:17:19.261Z,8.87
2019-01-31T02:19:58.490Z,8.77
2019-01-31T02:22:46.572Z,8.83
2019-01-31T02:25:21.549Z,9.07
2019-01-31T02:28:09.853Z,8.33
2019-01-31T02:30:45.128Z,9.00
2019-01-31T02:33:18.508Z,9.60
2019-01-31T02:35:59.759Z,9.30
2019-01-31T02:38:50.280Z,9.13
2019-01-31T02:41:35.877Z,9.27
2019-01-31T02:44:20.061Z,9.57
2019-01-31T02:46:58.466Z,9.00
2019-01-31T02:49:39.809Z,9.37
2019-01-31T02:52:24.575Z,8.90
2019-01-31T02:55:03.885Z,9.40
2019-01-31T02:57:47.372Z,9.37
2019-01-31T03:00:43.774Z,8.63
2019-01-31T03:03:31.535Z,9.33
2019-01-31T03:06:06.797Z,9.37
2019-01-31T03:08:44.852Z,10.03
2019-01-31T03:11:19.989Z,9.70
2019-01-31T03:13:52.423Z,9.53
2019-01-31T03:16:31.606Z,9.40
2019-01-31T03:19:12.873Z,9.23
2019-01-31T03:21:53.934Z,9.30
2019-01-31T03:24:43.984Z,9.20
2019-01-31T03:27:37.454Z,9.03
2019-01-31T03:30:26.205Z,8.90
2019-01-31T03:32:58.650Z,8.93
2019-01-31T03:35:31.081Z,9.30
2019-01-31T03:38:08.415Z,9.00
2019-01-31T03:40:43.844Z,7.97
2019-01-31T03:43:32.193Z,8.57
2019-01-31T03:46:31.113Z,8.70
2019-01-31T03:49:06.995Z,8.27
2019-01-31T03:51:49.038Z,8.80
2019-01-31T03:54:42.970Z,9.00
2019-01-31T03:57:20.977Z,8.43
2019-01-31T03:59:53.452Z,9.07
2019-01-31T04:02:31.870Z,8.57
2019-01-31T04:05:16.189Z,8.53
2019-01-31T04:07:45.417Z,7.90
2019-01-31T04:10:19.052Z,7.97
2019-01-31T04:12:47.544Z,8.60
2019-01-31T04:15:16.840Z,8.37
2019-01-31T04:17:46.093Z,8.60
2019-01-31T04:20:15.336Z,9.27
2019-01-31T04:22:45.629Z,8.33
2019-01-31T04:25:14.851Z,8.93
2019-01-31T04:27:44.100Z,7.90
2019-01-31T04:30:15.191Z,7.80
2019-01-31T04:32:44.459Z,7.67
2019-01-31T04:35:13.775Z,7.70
2019-01-31T04:37:43.111Z,8.33
2019-01-31T04:40:12.360Z,8.30
2019-01-31T04:42:41.620Z,8.23
2019-01-31T04:45:11.311Z,9.00
2019-01-31T04:47:41.658Z,8.10
2019-01-31T04:50:13.430Z,7.93
2019-01-31T04:52:43.192Z,7.60
2019-01-31T04:55:12.542Z,8.03
2019-01-31T04:57:42.881Z,7.77
2019-01-31T05:00:15.558Z,7.97
2019-01-31T05:02:44.805Z,7.33
2019-01-31T05:05:15.138Z,7.43
2019-01-31T05:07:44.501Z,7.17
2019-01-31T05:10:14.127Z,7.50
2019-01-31T05:12:43.579Z,7.83
2019-01-31T05:15:14.171Z,8.20
2019-01-31T05:17:43.527Z,7.40
2019-01-31T05:20:17.628Z,7.63
2019-01-31T05:22:46.941Z,7.10
2019-01-31T05:25:16.345Z,7.10
2019-01-31T05:27:45.581Z,7.33
2019-01-31T05:30:18.547Z,7.53
2019-01-31T05:32:47.931Z,7.20
2019-01-31T05:35:17.163Z,7.00
2019-01-31T05:37:46.518Z,9.40
2019-01-31T05:40:16.746Z,7.40
2019-01-31T05:42:45.952Z,6.70
2019-01-31T05:45:15.927Z,6.70
2019-01-31T05:47:45.178Z,6.70
2019-01-31T05:50:16.276Z,6.57
2019-01-31T05:52:45.601Z,6.57
2019-01-31T05:55:15.100Z,6.87
2019-01-31T05:57:44.339Z,6.43
2019-01-31T06:00:21.658Z,6.33
2019-01-31T06:02:50.958Z,6.37
2019-01-31T06:05:22.747Z,5.93
2019-01-31T06:07:52.312Z,6.07
2019-01-31T06:10:21.532Z,6.43
2019-01-31T06:12:50.822Z,5.67
2019-01-31T06:15:20.123Z,6.30
2019-01-31T06:17:49.381Z,6.43
2019-01-31T06:20:24.847Z,6.77
2019-01-31T06:22:54.162Z,7.50
2019-01-31T06:25:23.399Z,6.73
2019-01-31T06:27:52.685Z,5.70
2019-01-31T06:30:21.907Z,7.00
2019-01-31T06:32:51.150Z,6.20
2019-01-31T06:35:20.512Z,6.00
2019-01-31T06:37:49.731Z,6.17
2019-01-31T06:40:20.719Z,6.93
2019-01-31T06:42:50.100Z,6.30
2019-01-31T06:45:21.177Z,6.63
2019-01-31T06:47:50.511Z,6.20
2019-01-31T06:50:19.757Z,6.40
2019-01-31T06:52:49.019Z,5.97
2019-01-31T06:55:18.325Z,5.80
2019-01-31T06:57:47.582Z,5.33
2019-01-31T07:00:22.062Z,6.10
2019-01-31T07:02:51.580Z,5.83
2019-01-31T07:05:20.880Z,5.80
2019-01-31T07:07:50.130Z,5.57
2019-01-31T07:10:24.926Z,5.80
2019-01-31T07:12:56.078Z,5.43
2019-01-31T07:15:26.288Z,6.07
2019-01-31T07:17:57.534Z,5.90
2019-01-31T07:20:26.765Z,5.47
2019-01-31T07:22:55.995Z,5.87
2019-01-31T07:25:25.603Z,5.00
2019-01-31T07:27:54.886Z,5.50
2019-01-31T07:30:26.753Z,5.50
2019-01-31T07:32:55.413Z,5.50
2019-01-31T07:35:25.626Z,5.87
2019-01-31T07:37:54.832Z,6.63
2019-01-31T07:40:24.065Z,5.97
2019-01-31T07:42:53.300Z,5.67
2019-01-31T07:45:30.979Z,6.07
2019-01-31T07:48:00.265Z,6.20
2019-01-31T07:50:29.496Z,5.53
2019-01-31T07:52:58.730Z,5.63
2019-01-31T07:55:27.977Z,6.63
2019-01-31T07:57:57.196Z,6.30
2019-01-31T08:00:26.626Z,6.17
2019-01-31T08:02:55.857Z,5.60
2019-01-31T08:05:25.674Z,6.23
2019-01-31T08:07:56.661Z,6.20
2019-01-31T08:10:32.411Z,5.93
2019-01-31T08:13:02.617Z,5.83
2019-01-31T08:15:31.940Z,5.97
2019-01-31T08:18:01.180Z,6.13
2019-01-31T08:20:30.402Z,6.10
2019-01-31T08:23:00.275Z,7.10
2019-01-31T08:25:29.622Z,6.40
2019-01-31T08:27:58.919Z,5.90
2019-01-31T08:30:39.834Z,6.17
2019-01-31T08:33:09.985Z,5.70
2019-01-31T08:35:39.292Z,5.87
2019-01-31T08:38:09.539Z,6.03
2019-01-31T08:40:39.799Z,6.37
2019-01-31T08:43:09.037Z,6.60
2019-01-31T08:45:38.274Z,6.57
2019-01-31T08:48:07.665Z,7.30
2019-01-31T08:50:36.926Z,6.47
2019-01-31T08:53:06.163Z,6.03
2019-01-31T08:55:35.394Z,6.87
2019-01-31T08:58:04.825Z,7.10
2019-01-31T09:00:34.079Z,7.23
2019-01-31T09:03:03.387Z,7.17
2019-01-31T09:05:32.706Z,6.57
2019-01-31T09:08:03.875Z,7.30
2019-01-31T09:10:39.366Z,7.60
2019-01-31T09:13:10.144Z,7.03
2019-01-31T09:15:45.240Z,7.17
2019-01-31T09:18:14.506Z,7.10
2019-01-31T09:20:56.622Z,7.10
2019-01-31T09:23:34.635Z,6.93
2019-01-31T09:26:39.831Z,6.80
2019-01-31T09:29:26.936Z,6.73
2019-01-31T09:32:15.615Z,7.23
2019-01-31T09:35:06.893Z,7.57
2019-01-31T09:38:05.681Z,7.30
2019-01-31T09:40:55.480Z,6.93
2019-01-31T09:43:48.528Z,7.40
2019-01-31T09:46:30.180Z,7.10
2019-01-31T09:49:02.589Z,7.10
2019-01-31T09:51:55.710Z,7.53
2019-01-31T09:54:29.013Z,7.00
2019-01-31T09:57:17.378Z,7.23
2019-01-31T10:00:01.424Z,7.67
2019-01-31T10:03:03.204Z,7.03
2019-01-31T10:05:58.298Z,6.73
2019-01-31T10:08:48.552Z,6.83
2019-01-31T10:11:36.469Z,7.37
2019-01-31T10:14:12.683Z,7.47
2019-01-31T10:16:46.915Z,7.20
2019-01-31T10:19:32.922Z,7.77
2019-01-31T10:22:08.433Z,8.17
2019-01-31T10:24:56.600Z,7.77
2019-01-31T10:27:40.804Z,8.33
2019-01-31T10:30:22.823Z,7.30
2019-01-31T10:33:14.480Z,7.27
2019-01-31T10:35:46.889Z,8.60
2019-01-31T10:38:36.945Z,8.63
2019-01-31T10:41:40.690Z,8.20
2019-01-31T10:44:38.155Z,7.80
2019-01-31T10:47:19.073Z,8.30
2019-01-31T10:50:03.243Z,8.43
2019-01-31T10:52:50.610Z,8.13
2019-01-31T10:55:28.923Z,8.13
2019-01-31T10:58:26.234Z,8.33
2019-01-31T11:01:04.449Z,8.30
2019-01-31T11:03:42.460Z,8.17
2019-01-31T11:06:21.466Z,8.83
2019-01-31T11:09:22.455Z,8.80
2019-01-31T11:12:26.199Z,7.90
2019-01-31T11:15:21.429Z,8.83
2019-01-31T11:18:05.569Z,8.63
2019-01-31T11:20:40.723Z,8.57
2019-01-31T11:23:13.131Z,8.50
2019-01-31T11:26:10.993Z,9.80
2019-01-31T11:28:43.410Z,8.43
2019-01-31T11:31:43.954Z,8.17
2019-01-31T11:34:34.429Z,8.53
2019-01-31T11:37:09.340Z,8.73
2019-01-31T11:39:56.581Z,8.80
2019-01-31T11:42:31.592Z,8.73
2019-01-31T11:45:21.834Z,8.70
2019-01-31T11:48:14.859Z,11.13
2019-01-31T11:51:19.835Z,10.43
2019-01-31T11:54:00.984Z,8.90
2019-01-31T11:57:05.337Z,9.23
2019-01-31T11:59:28.379Z,9.00
2019-01-31T12:01:57.635Z,9.40
2019-01-31T12:04:26.886Z,9.43
2019-01-31T12:06:56.118Z,8.17
2019-01-31T12:09:25.387Z,8.63
2019-01-31T12:11:54.668Z,9.00
2019-01-31T12:14:23.988Z,8.03
2019-01-31T12:16:53.354Z,8.00
2019-01-31T12:19:22.686Z,7.90
2019-01-31T12:21:52.935Z,7.83
2019-01-31T12:24:22.179Z,8.17
2019-01-31T12:26:51.412Z,8.30
2019-01-31T12:29:20.669Z,7.17
2019-01-31T12:31:49.918Z,6.80
2019-01-31T12:34:19.159Z,7.30
2019-01-31T12:36:48.399Z,7.47
2019-01-31T12:39:17.666Z,7.37
2019-01-31T12:41:46.907Z,6.47
2019-01-31T12:44:16.158Z,6.10
2019-01-31T12:46:45.469Z,6.33
2019-01-31T12:49:14.760Z,6.97
2019-01-31T12:51:45.030Z,6.30
2019-01-31T12:54:14.280Z,5.83
2019-01-31T12:56:43.525Z,5.87
2019-01-31T12:59:12.734Z,5.83
2019-01-31T13:01:42.136Z,5.93
2019-01-31T13:04:11.362Z,6.03
2019-01-31T13:06:40.609Z,5.73
2019-01-31T13:09:11.291Z,5.07
2019-01-31T13:11:40.526Z,5.10
2019-01-31T13:14:09.761Z,5.83
2019-01-31T13:16:39.029Z,6.17
2019-01-31T13:19:08.247Z,6.13
2019-01-31T13:21:37.479Z,6.57
2019-01-31T13:24:06.879Z,5.70
2019-01-31T13:26:37.070Z,6.13
2019-01-31T13:29:06.369Z,5.60
2019-01-31T13:31:35.596Z,5.73
2019-01-31T13:34:05.067Z,5.50
2019-01-31T13:36:34.313Z,5.43
2019-01-31T13:39:06.823Z,4.77
2019-01-31T13:41:36.392Z,5.00
2019-01-31T13:44:05.622Z,5.60
2019-01-31T13:46:34.870Z,5.20
2019-01-31T13:49:04.186Z,5.37
2019-01-31T13:51:33.425Z,5.07
2019-01-31T13:54:02.666Z,7.20
2019-01-31T13:56:32.912Z,5.70
2019-01-31T13:59:02.167Z,6.00
2019-01-31T14:01:31.402Z,5.77
2019-01-31T14:04:00.645Z,6.30
2019-01-31T14:06:30.867Z,6.97
2019-01-31T14:09:00.109Z,6.90
2019-01-31T14:11:29.362Z,6.97
2019-01-31T14:14:08.803Z,7.40
2019-01-31T14:16:29.535Z,6.77
2019-01-31T14:18:58.763Z,7.63
2019-01-31T14:21:28.022Z,7.40
2019-01-31T14:23:57.263Z,7.97
2019-01-31T14:26:26.505Z,10.13
2019-01-31T14:28:57.646Z,8.50
2019-01-31T14:31:26.930Z,8.70
2019-01-31T14:33:56.240Z,8.20
2019-01-31T14:36:26.543Z,8.67
2019-01-31T14:38:56.716Z,9.40
2019-01-31T14:41:25.940Z,9.03
2019-01-31T14:43:56.003Z,8.60
2019-01-31T14:46:25.301Z,8.87
2019-01-31T14:48:54.559Z,9.67
2019-01-31T14:51:23.842Z,9.20
2019-01-31T14:53:53.089Z,9.13
2019-01-31T14:56:22.348Z,9.07
2019-01-31T14:58:51.602Z,8.83
2019-01-31T15:01:21.830Z,9.43
2019-01-31T15:03:51.593Z,9.80
2019-01-31T15:06:21.986Z,10.27
2019-01-31T15:08:51.230Z,10.23
2019-01-31T15:11:20.497Z,9.43
2019-01-31T15:13:49.748Z,10.10
2019-01-31T15:16:18.994Z,10.30
2019-01-31T15:18:48.232Z,10.00
2019-01-31T15:21:18.419Z,10.47
2019-01-31T15:23:47.670Z,10.00
2019-01-31T15:26:16.922Z,10.33
2019-01-31T15:28:48.137Z,10.40
2019-01-31T15:31:19.304Z,10.90
2019-01-31T15:33:48.551Z,10.30
2019-01-31T15:36:18.698Z,10.50
2019-01-31T15:38:49.979Z,10.27
2019-01-31T15:41:19.253Z,10.77
2019-01-31T15:43:48.499Z,10.77
2019-01-31T15:46:18.081Z,11.87
2019-01-31T15:48:47.417Z,10.77
2019-01-31T15:51:16.749Z,10.63
2019-01-31T15:53:46.972Z,11.70
2019-01-31T15:56:16.222Z,11.30
2019-01-31T15:58:45.477Z,10.87
2019-01-31T16:01:14.763Z,11.43
2019-01-31T16:03:44.114Z,11.27
2019-01-31T16:06:13.352Z,11.33
2019-01-31T16:08:42.611Z,11.20
2019-01-31T16:11:11.840Z,11.57
2019-01-31T16:13:41.120Z,11.60
2019-01-31T16:16:10.361Z,11.07
2019-01-31T16:18:39.639Z,11.10
2019-01-31T16:21:10.809Z,11.40
2019-01-31T16:23:40.080Z,12.30
2019-01-31T16:26:09.334Z,11.20
2019-01-31T16:28:38.860Z,11.77
2019-01-31T16:31:08.110Z,11.80
2019-01-31T16:33:38.487Z,12.17
2019-01-31T16:36:07.751Z,12.13
2019-01-31T16:38:37.004Z,11.37
2019-01-31T16:41:06.258Z,11.90
2019-01-31T16:43:37.508Z,12.40
2019-01-31T16:46:06.829Z,12.30
2019-01-31T16:48:36.138Z,12.40
2019-01-31T16:51:06.409Z,13.20
2019-01-31T16:53:36.653Z,12.00
2019-01-31T16:56:05.901Z,12.03
2019-01-31T16:58:37.153Z,11.20
2019-01-31T17:01:06.540Z,11.67
2019-01-31T17:03:35.793Z,11.63
2019-01-31T17:06:06.095Z,11.90
2019-01-31T17:08:36.269Z,12.53
2019-01-31T17:11:05.532Z,12.80
2019-01-31T17:13:35.788Z,11.50
2019-01-31T17:16:05.108Z,11.67
2019-01-31T17:18:34.410Z,12.70
2019-01-31T17:21:03.688Z,13.40
2019-01-31T17:23:32.940Z,12.67
2019-01-31T17:26:02.277Z,12.43
2019-01-31T17:28:31.517Z,13.03
2019-01-31T17:31:00.796Z,12.57
2019-01-31T17:33:30.047Z,13.07
2019-01-31T17:35:59.304Z,13.10
2019-01-31T17:38:28.542Z,12.90
2019-01-31T17:40:58.817Z,12.60
2019-01-31T17:43:28.053Z,13.33
2019-01-31T17:45:57.476Z,12.93
2019-01-31T17:48:26.721Z,13.37
2019-01-31T17:50:55.972Z,12.80
2019-01-31T17:53:26.256Z,13.50
2019-01-31T17:55:55.517Z,12.30
2019-01-31T17:58:24.757Z,13.33
2019-01-31T18:00:55.647Z,13.00
2019-01-31T18:03:24.940Z,12.93
2019-01-31T18:05:54.183Z,12.70
2019-01-31T18:08:23.433Z,13.63
2019-01-31T18:10:54.572Z,12.50
2019-01-31T18:13:23.886Z,13.03
2019-01-31T18:15:53.130Z,12.57
2019-01-31T18:18:22.397Z,13.73
2019-01-31T18:20:53.707Z,13.03
2019-01-31T18:23:22.975Z,12.97
2019-01-31T18:25:52.210Z,13.93
2019-01-31T18:28:21.462Z,12.77
2019-01-31T18:30:50.722Z,13.23
2019-01-31T18:33:21.910Z,12.60
2019-01-31T18:35:51.149Z,13.23
2019-01-31T18:38:20.403Z,12.57
2019-01-31T18:40:49.657Z,12.93
2019-01-31T18:43:19.498Z,11.77
2019-01-31T18:45:53.399Z,12.63
2019-01-31T18:48:20.660Z,12.53
2019-01-31T18:50:49.914Z,12.80
2019-01-31T18:53:19.185Z,13.77
2019-01-31T18:55:48.490Z,12.47
2019-01-31T18:58:17.742Z,12.87
2019-01-31T19:00:47.434Z,12.90
2019-01-31T19:03:17.123Z,13.17
2019-01-31T19:05:46.735Z,14.20
2019-01-31T19:08:15.972Z,15.63
2019-01-31T19:10:45.204Z,14.73
2019-01-31T19:13:14.443Z,14.80
2019-01-31T19:15:46.265Z,14.33
2019-01-31T19:18:14.667Z,13.37
2019-01-31T19:20:43.989Z,13.07
2019-01-31T19:23:13.367Z,13.40
2019-01-31T19:25:42.628Z,12.63
2019-01-31T19:28:13.290Z,13.00
2019-01-31T19:30:42.815Z,12.83
2019-01-31T19:33:12.123Z,12.73
2019-01-31T19:35:41.381Z,13.47
2019-01-31T19:38:10.694Z,13.23
2019-01-31T19:40:42.713Z,12.83
2019-01-31T19:43:12.026Z,13.40
2019-01-31T19:45:47.055Z,13.17
2019-01-31T19:48:16.843Z,13.47
2019-01-31T19:50:46.099Z,12.73
2019-01-31T19:53:15.577Z,13.07
2019-01-31T19:55:45.774Z,13.27
2019-01-31T19:58:16.064Z,12.83
2019-01-31T20:00:45.300Z,12.63
2019-01-31T20:03:14.621Z,12.93
2019-01-31T20:05:43.847Z,12.13
2019-01-31T20:08:15.121Z,12.53
2019-01-31T20:10:45.315Z,12.27
2019-01-31T20:13:15.548Z,12.03
2019-01-31T20:15:44.835Z,12.60
2019-01-31T20:18:15.070Z,12.43
2019-01-31T20:20:44.390Z,11.17
2019-01-31T20:23:13.627Z,12.50
2019-01-31T20:25:42.887Z,11.53
2019-01-31T20:28:12.190Z,12.10
2019-01-31T20:30:41.432Z,11.87
2019-01-31T20:33:10.673Z,12.17
2019-01-31T20:35:39.994Z,11.37
2019-01-31T20:38:09.326Z,11.67
2019-01-31T20:40:39.704Z,11.50
2019-01-31T20:43:10.214Z,11.83
2019-01-31T20:45:39.534Z,12.63
2019-01-31T20:48:09.046Z,11.67
2019-01-31T20:50:39.225Z,11.93
2019-01-31T20:53:08.543Z,12.23
2019-01-31T20:55:37.845Z,12.53
2019-01-31T20:58:07.188Z,12.80
2019-01-31T21:00:38.928Z,12.10
2019-01-31T21:03:10.538Z,12.30
2019-01-31T21:05:40.147Z,12.40
2019-01-31T21:08:09.836Z,13.90
2019-01-31T21:10:40.104Z,14.30
2019-01-31T21:13:09.333Z,13.97
2019-01-31T21:15:38.649Z,13.27
2019-01-31T21:18:08.950Z,12.83
2019-01-31T21:20:38.284Z,12.23
2019-01-31T21:23:07.889Z,12.47
2019-01-31T21:25:37.151Z,12.10
2019-01-31T21:28:06.474Z,12.17
2019-01-31T21:30:38.148Z,13.40
2019-01-31T21:33:07.476Z,12.20
2019-01-31T21:35:36.874Z,11.90
2019-01-31T21:38:06.187Z,12.13
2019-01-31T21:40:35.727Z,12.53
2019-01-31T21:43:05.362Z,13.17
2019-01-31T21:45:35.620Z,14.03
2019-01-31T21:48:05.704Z,11.83
2019-01-31T21:50:36.872Z,12.07
2019-01-31T21:53:06.441Z,13.10
2019-01-31T21:55:35.698Z,11.93
2019-01-31T21:58:05.206Z,12.33
2019-01-31T22:00:35.488Z,11.97
2019-01-31T22:03:05.523Z,12.87
2019-01-31T22:05:34.855Z,13.07
2019-01-31T22:08:04.510Z,13.60
2019-01-31T22:10:33.808Z,12.43
2019-01-31T22:13:05.226Z,13.03
2019-01-31T22:15:35.624Z,13.67
2019-01-31T22:18:05.793Z,13.37
2019-01-31T22:20:35.018Z,12.13
2019-01-31T22:23:04.554Z,12.27
2019-01-31T22:25:33.784Z,12.57
2019-01-31T22:28:03.033Z,13.67
2019-01-31T22:30:34.432Z,12.53
2019-01-31T22:33:04.559Z,12.57
2019-01-31T22:35:33.804Z,12.83
2019-01-31T22:38:03.047Z,12.77
2019-01-31T22:40:32.308Z,13.03
2019-01-31T22:43:01.570Z,12.43
2019-01-31T22:45:30.812Z,12.27
2019-01-31T22:48:00.061Z,12.53
2019-01-31T22:50:29.322Z,12.97
2019-01-31T22:52:59.541Z,12.80
2019-01-31T22:55:29.736Z,11.90
2019-01-31T22:57:59.052Z,12.70
2019-01-31T23:01:01.169Z,11.70
2019-01-31T23:03:30.382Z,10.83
2019-01-31T23:05:59.623Z,12.03
2019-01-31T23:08:29.834Z,11.50
2019-01-31T23:10:59.063Z,11.87
2019-01-31T23:13:28.302Z,11.33
2019-01-31T23:15:58.582Z,11.77
2019-01-31T23:18:27.828Z,11.27
2019-01-31T23:20:57.120Z,11.53
2019-01-31T23:23:26.372Z,12.10
2019-01-31T23:25:55.632Z,12.10
2019-01-31T23:28:24.900Z,11.33
2019-01-31T23:30:54.139Z,11.40
2019-01-31T23:33:23.384Z,11.07
2019-01-31T23:35:52.627Z,11.33
2019-01-31T23:38:21.879Z,11.33
2019-01-31T23:40:51.198Z,11.40
2019-01-31T23:43:20.436Z,11.40
2019-01-31T23:45:49.677Z,10.47
2019-01-31T23:48:18.932Z,10.53
2019-01-31T23:50:49.174Z,10.60
2019-01-31T23:53:20.402Z,10.03
2019-01-31T23:55:49.633Z,9.77
2019-01-31T23:58:19.821Z,10.13
